Terminal Aerodrome Forecast
Issued by NWS Atlanta, GA

Home | Current Version | Previous Version | Text Only | Print | Product List | Glossary On
Versions: 1 2 3 4 5 6 7 8 9 10 11 12 13 14 15 16 17 18 19 20 21 22 23 24 25 26 27 28 29 30 31 32 33 34 35 36
684
FTUS42 KFFC 291140
TAFATL
TAF
KATL 291140Z 2912/3018 13008KT P6SM VCSH BKN020
     FM291600 12008KT 6SM -SHRA BKN020
      TEMPO 2919/2923 5SM TSRA BKN015CB
     FM300000 13006KT 4SM -RA OVC007
     FM300800 16005KT 4SM -RA OVC005=

USA.gov is the U.S. government's official web portal to all federal, state and local government web resources and services.